createdAt,value
2018-06-19T06:55:02.830Z,99002.98
2018-06-19T06:57:50.103Z,99006.78
2018-06-19T07:00:26.879Z,99002.08
2018-06-19T07:03:02.840Z,99006.73
2018-06-19T07:05:34.767Z,99007.58
2018-06-19T07:08:04.576Z,99006.34
2018-06-19T07:10:34.472Z,99008.70
2018-06-19T07:13:04.390Z,99016.27
2018-06-19T07:15:34.669Z,99015.09
2018-06-19T07:18:05.695Z,99011.12
2018-06-19T07:20:36.130Z,99011.48
2018-06-19T07:23:08.647Z,99007.07
2018-06-19T07:25:38.743Z,99005.45
2018-06-19T07:28:08.573Z,99002.53
2018-06-19T07:30:42.195Z,99012.25
2018-06-19T07:33:12.425Z,99010.27
2018-06-19T07:35:42.325Z,99001.04
2018-06-19T07:38:12.604Z,99004.67
2018-06-19T07:40:42.292Z,99002.37
2018-06-19T07:43:12.039Z,99002.70
2018-06-19T07:45:42.241Z,98995.23
2018-06-19T07:48:12.079Z,98993.52
2018-06-19T07:50:42.026Z,98998.51
2018-06-19T07:53:16.376Z,99002.48
2018-06-19T07:55:46.163Z,98990.85
2018-06-19T07:58:16.036Z,98989.09
2018-06-19T08:00:47.239Z,98991.40
2018-06-19T08:03:17.092Z,98993.22
2018-06-19T08:05:47.041Z,98995.97
2018-06-19T08:08:17.150Z,98993.11
2018-06-19T08:10:47.260Z,98994.55
2018-06-19T08:13:17.036Z,98992.62
2018-06-19T08:15:47.362Z,98986.25
2018-06-19T08:18:17.456Z,99002.94
2018-06-19T08:20:47.193Z,99000.56
2018-06-19T08:23:17.291Z,98988.76
2018-06-19T08:25:47.188Z,98997.99
2018-06-19T08:28:17.432Z,98988.83
2018-06-19T08:30:49.819Z,98991.78
2018-06-19T08:33:19.711Z,98985.25
2018-06-19T08:35:49.600Z,98983.30
2018-06-19T08:38:20.894Z,98979.95
2018-06-19T08:40:50.765Z,98984.44
2018-06-19T08:43:20.614Z,98985.80
2018-06-19T08:46:05.337Z,98981.47
2018-06-19T08:48:35.545Z,98986.28
2018-06-19T08:51:05.651Z,98986.26
2018-06-19T08:53:35.996Z,98985.45
2018-06-19T08:56:06.192Z,98985.25
2018-06-19T08:58:36.218Z,98988.76
2018-06-19T09:01:06.537Z,98991.05
2018-06-19T09:03:36.447Z,98986.97
2018-06-19T09:06:06.364Z,98987.53
2018-06-19T09:08:36.687Z,98995.27
2018-06-19T09:11:06.914Z,98989.42
2018-06-19T09:13:36.836Z,98992.14
2018-06-19T09:16:07.327Z,98993.67
2018-06-19T09:18:37.371Z,98995.17
2018-06-19T09:21:08.533Z,98984.77
2018-06-19T09:23:38.634Z,98994.41
2018-06-19T09:26:10.305Z,98996.91
2018-06-19T09:28:40.328Z,98990.69
2018-06-19T09:31:10.596Z,98993.27
2018-06-19T09:33:40.811Z,98989.94
2018-06-19T09:36:11.667Z,98991.95
2018-06-19T09:38:42.194Z,98991.39
2018-06-19T09:41:12.774Z,98984.79
2018-06-19T09:43:42.822Z,98987.89
2018-06-19T09:46:13.003Z,98992.48
2018-06-19T09:48:43.408Z,98992.72
2018-06-19T09:51:14.053Z,99005.02
2018-06-19T09:53:45.209Z,99006.92
2018-06-19T09:56:16.597Z,99005.88
2018-06-19T09:58:52.528Z,98998.32
2018-06-19T10:01:26.768Z,99002.84
2018-06-19T10:04:02.789Z,98998.45
2018-06-19T10:06:34.474Z,98999.55
2018-06-19T10:09:12.944Z,99005.88
2018-06-19T10:11:55.462Z,98998.53
2018-06-19T10:14:26.047Z,99001.00
2018-06-19T10:16:57.224Z,98995.37
2018-06-19T10:19:28.558Z,98994.20
2018-06-19T10:21:59.333Z,98997.48
2018-06-19T10:24:31.164Z,98996.38
2018-06-19T10:27:01.057Z,99008.39
2018-06-19T10:29:30.896Z,99007.58
2018-06-19T10:32:07.482Z,98998.03
2018-06-19T10:34:37.335Z,99000.18
2018-06-19T10:37:07.215Z,99004.39
2018-06-19T10:39:38.679Z,99003.51
2018-06-19T10:42:09.269Z,99000.34
2018-06-19T10:44:39.309Z,98997.84
2018-06-19T10:47:09.486Z,98996.30
2018-06-19T10:49:39.447Z,98998.48
2018-06-19T10:52:09.399Z,98993.78
2018-06-19T10:54:40.782Z,98992.95
2018-06-19T10:57:10.860Z,98991.23
2018-06-19T10:59:43.320Z,98988.14
2018-06-19T11:02:13.463Z,98991.34
2018-06-19T11:04:43.756Z,98990.48
2018-06-19T11:07:14.550Z,98986.76
2018-06-19T11:09:45.131Z,98993.48
2018-06-19T11:12:14.972Z,98997.33
2018-06-19T11:15:00.275Z,98996.23
2018-06-19T11:17:35.593Z,98995.39
2018-06-19T11:20:08.381Z,98993.91
2018-06-19T11:22:44.088Z,98990.78
2018-06-19T11:25:14.548Z,98984.45
2018-06-19T11:27:44.960Z,98989.55
2018-06-19T11:30:14.964Z,98983.88
2018-06-19T11:32:45.958Z,98979.03
2018-06-19T11:35:21.714Z,98980.81
2018-06-19T11:37:52.066Z,98971.94
2018-06-19T11:40:23.423Z,98975.75
2018-06-19T11:42:54.902Z,98977.51
2018-06-19T11:45:26.194Z,98976.15
2018-06-19T11:47:57.182Z,98973.72
2018-06-19T11:50:27.982Z,98979.29
2018-06-19T11:52:58.154Z,98985.21
2018-06-19T11:55:28.932Z,98977.98
2018-06-19T11:58:00.004Z,98982.91
2018-06-19T12:00:30.918Z,98980.97
2018-06-19T12:03:02.990Z,98983.97
2018-06-19T12:05:33.658Z,98984.02
2018-06-19T12:08:03.674Z,98987.19
2018-06-19T12:10:33.808Z,98992.02
2018-06-19T12:13:05.060Z,98988.52
2018-06-19T12:15:35.862Z,98985.26
2018-06-19T12:18:06.094Z,98987.61
2018-06-19T12:20:36.460Z,98976.22
2018-06-19T12:23:06.887Z,98968.62
2018-06-19T12:25:37.146Z,98966.79
2018-06-19T12:28:08.147Z,98955.11
2018-06-19T12:30:41.526Z,98950.73
2018-06-19T12:33:12.178Z,98953.16
2018-06-19T12:35:42.094Z,98954.41
2018-06-19T12:38:12.259Z,98951.76
2018-06-19T12:40:42.865Z,98954.36
2018-06-19T12:43:12.871Z,98937.11
2018-06-19T12:45:43.465Z,98940.84
2018-06-19T12:48:21.086Z,98936.02
2018-06-19T12:52:01.588Z,98943.98
2018-06-19T12:56:42.494Z,98936.44
2018-06-19T12:59:12.358Z,98935.51
2018-06-19T13:01:42.576Z,98932.42
2018-06-19T13:04:23.719Z,98928.69
2018-06-19T13:06:54.818Z,98926.11
2018-06-19T13:09:32.460Z,98923.80
2018-06-19T13:12:03.169Z,98918.37
2018-06-19T13:14:40.739Z,98917.56
2018-06-19T13:17:21.630Z,98915.89
2018-06-19T13:20:02.328Z,98913.25
2018-06-19T13:22:33.459Z,98910.74
2018-06-19T13:25:03.335Z,98906.66
2018-06-19T13:27:34.156Z,98914.19
2018-06-19T13:30:15.252Z,98905.00
2018-06-19T13:32:45.069Z,98904.81
2018-06-19T13:35:22.313Z,98904.23
2018-06-19T13:37:52.137Z,98907.56
2018-06-19T13:41:29.914Z,98910.95
2018-06-19T13:44:12.007Z,98902.72
2018-06-19T13:46:45.385Z,98904.94
2018-06-19T13:49:17.912Z,98898.09
2018-06-19T13:51:50.393Z,98895.92
2018-06-19T13:57:39.709Z,98898.92
2018-06-19T14:00:18.478Z,98891.17
2018-06-19T14:03:01.851Z,98890.78
2018-06-19T14:05:49.648Z,98890.05
2018-06-19T14:08:52.956Z,98888.25
2018-06-19T14:18:16.453Z,98893.11
2018-06-19T14:20:47.135Z,98898.39
2018-06-19T14:23:17.748Z,98893.34
2018-06-19T14:25:50.135Z,98889.91
2018-06-19T14:28:22.651Z,98899.97
2018-06-19T14:30:52.574Z,98898.72
2018-06-19T14:33:26.108Z,98899.91
2018-06-19T14:35:57.145Z,98908.50
2018-06-19T14:38:29.968Z,98915.62
2018-06-19T14:41:05.022Z,98914.52
2018-06-19T14:43:46.659Z,98914.84
2018-06-19T14:46:23.242Z,98914.88
2018-06-19T14:49:54.440Z,98912.36
2018-06-19T14:52:26.376Z,98910.31
2018-06-19T14:57:39.188Z,98902.73
2018-06-19T15:02:52.520Z,98904.26
2018-06-19T15:05:25.772Z,98899.49
2018-06-19T15:07:58.150Z,98886.36
2018-06-19T15:10:40.446Z,98870.36
2018-06-19T15:13:10.481Z,98878.38
2018-06-19T15:15:42.486Z,98891.38
2018-06-19T15:18:13.099Z,98898.88
2018-06-19T15:20:42.910Z,98891.47
2018-06-19T15:23:14.482Z,98884.77
2018-06-19T15:25:44.461Z,98889.73
2018-06-19T15:28:14.763Z,98891.19
2018-06-19T15:30:48.009Z,98892.97
2018-06-19T15:33:22.977Z,98885.03
2018-06-19T15:38:58.424Z,98868.43
2018-06-19T15:41:28.733Z,98863.16
2018-06-19T15:43:59.993Z,98850.66
2018-06-19T15:46:31.901Z,98848.59
2018-06-19T15:49:03.275Z,98849.83
2018-06-19T15:51:33.812Z,98846.36
2018-06-19T15:54:05.267Z,98846.50
2018-06-19T15:56:36.677Z,98840.56
2018-06-19T15:59:07.415Z,98852.19
2018-06-19T16:01:37.988Z,98848.78
2018-06-19T16:04:18.050Z,98850.30
2018-06-19T16:09:35.893Z,98842.46
2018-06-19T16:12:07.830Z,98841.16
2018-06-19T16:14:45.531Z,98828.59
2018-06-19T16:17:20.588Z,98840.02
2018-06-19T16:19:53.835Z,98839.59
2018-06-19T16:22:31.253Z,98836.36
2018-06-19T16:28:04.979Z,98833.03
2018-06-19T16:30:36.859Z,98830.53
2018-06-19T16:33:07.547Z,98835.91
2018-06-19T16:35:41.936Z,98832.59
2018-06-19T16:38:16.089Z,98832.08
2018-06-19T16:40:48.697Z,98826.08
2018-06-19T16:43:19.632Z,98828.46
2018-06-19T16:45:49.630Z,98834.01
2018-06-19T16:48:19.756Z,98830.17
2018-06-19T16:50:50.881Z,98819.99
2018-06-19T16:53:21.368Z,98820.77
2018-06-19T16:55:53.519Z,98826.21
2018-06-19T16:58:25.317Z,98826.93
2018-06-19T17:00:55.496Z,98827.49
2018-06-19T17:03:31.667Z,98822.84
2018-06-19T17:06:08.228Z,98823.77
2018-06-19T17:08:40.179Z,98812.52
2018-06-19T17:11:11.697Z,98817.44
2018-06-19T17:13:43.791Z,98815.74
2018-06-19T17:16:14.347Z,98814.80
2018-06-19T17:18:55.280Z,98810.01
2018-06-19T17:21:50.060Z,98814.24
2018-06-19T17:24:39.463Z,98812.41
2018-06-19T17:27:10.712Z,98800.09
2018-06-19T17:29:45.045Z,98813.18
2018-06-19T17:32:17.347Z,98802.23
2018-06-19T17:34:48.922Z,98805.59
2018-06-19T17:37:19.502Z,98809.05
2018-06-19T17:39:50.069Z,98808.23
2018-06-19T17:42:20.804Z,98804.75
2018-06-19T17:44:51.624Z,98807.44
2018-06-19T17:47:22.072Z,98802.45
2018-06-19T17:49:53.459Z,98809.15
2018-06-19T17:52:24.253Z,98806.81
2018-06-19T17:54:54.986Z,98807.65
2018-06-19T17:57:38.259Z,98803.80
2018-06-19T18:00:09.157Z,98812.68
2018-06-19T18:02:41.451Z,98802.82
2018-06-19T18:05:14.107Z,98814.55
2018-06-19T18:07:44.761Z,98817.06
2018-06-19T18:10:34.081Z,98812.22
2018-06-19T18:13:08.560Z,98815.05
2018-06-19T18:15:47.609Z,98812.36
2018-06-19T18:18:31.941Z,98808.52
2018-06-19T18:21:13.221Z,98810.52
2018-06-19T18:23:45.592Z,98819.02
2018-06-19T18:26:21.328Z,98813.49
2018-06-19T18:29:00.264Z,98808.87
2018-06-19T18:31:39.034Z,98811.05
2018-06-19T18:34:19.214Z,98814.48
2018-06-19T18:36:54.458Z,98810.13
2018-06-19T18:39:31.032Z,98812.47
2018-06-19T18:42:15.543Z,98816.11
2018-06-19T18:44:47.879Z,98811.09
2018-06-19T18:52:55.973Z,98811.20
2018-06-19T18:55:26.708Z,98812.37
2018-06-19T19:00:56.975Z,98807.23
2018-06-19T19:03:37.695Z,98798.50
2018-06-19T19:06:10.112Z,98798.96
2018-06-19T19:08:45.967Z,98808.45
2018-06-19T19:11:41.804Z,98808.09
2018-06-19T19:14:20.052Z,98802.55
2018-06-19T19:17:08.380Z,98806.69
2018-06-19T19:19:43.908Z,98813.64
2018-06-19T19:22:16.741Z,98811.46
2018-06-19T19:24:47.248Z,98818.26
2018-06-19T19:27:27.595Z,98814.34
2018-06-19T19:30:01.805Z,98817.44
2018-06-19T19:32:32.427Z,98819.58
2018-06-19T19:35:04.033Z,98814.84
2018-06-19T19:37:50.073Z,98813.50
2018-06-19T19:40:22.210Z,98818.18
2018-06-19T19:42:53.877Z,98824.20
2018-06-19T19:45:25.408Z,98820.45
2018-06-19T19:48:01.448Z,98823.71
2018-06-19T19:50:32.829Z,98823.83
2018-06-19T19:53:04.811Z,98828.03
2018-06-19T19:55:40.119Z,98830.55
2018-06-19T20:01:05.431Z,98831.73
2018-06-19T20:06:57.299Z,98836.87
2018-06-19T20:21:11.586Z,98844.92
2018-06-19T20:23:43.963Z,98843.61
2018-06-19T20:26:24.416Z,98844.95
2018-06-19T20:36:40.812Z,98850.25
2018-06-19T20:42:11.769Z,98845.20
2018-06-19T20:44:42.610Z,98843.02
2018-06-19T20:47:16.324Z,98841.56
2018-06-19T20:50:13.211Z,98841.06
2018-06-19T20:56:00.634Z,98837.91
2018-06-19T20:58:46.683Z,98836.07
2018-06-19T21:01:25.422Z,98843.05
2018-06-19T21:03:59.596Z,98844.70
2018-06-19T21:06:33.673Z,98838.34
2018-06-19T21:09:04.187Z,98843.05
2018-06-19T21:11:34.245Z,98843.55
2018-06-19T21:14:04.503Z,98844.21
2018-06-19T21:16:34.473Z,98841.09
2018-06-19T21:19:04.415Z,98843.69
2018-06-19T21:21:35.413Z,98836.42
2018-06-19T21:24:25.569Z,98837.74
2018-06-19T21:26:58.026Z,98833.44
2018-06-19T21:29:28.618Z,98838.22
2018-06-19T21:31:58.855Z,98836.57
2018-06-19T21:34:29.616Z,98835.03
2018-06-19T21:37:00.849Z,98836.62
2018-06-19T21:39:30.800Z,98834.05
2018-06-19T21:42:03.018Z,98840.17
2018-06-19T21:44:33.579Z,98841.20
2018-06-19T21:47:04.565Z,98840.41
2018-06-19T21:49:34.763Z,98842.21
2018-06-19T21:52:06.590Z,98837.02
2018-06-19T21:54:36.510Z,98838.16
2018-06-19T21:57:06.465Z,98836.25
2018-06-19T21:59:36.731Z,98836.77
2018-06-19T22:02:07.891Z,98838.09
2018-06-19T22:04:42.341Z,98839.16
2018-06-19T22:07:12.153Z,98841.26
2018-06-19T22:09:43.669Z,98835.81
2018-06-19T22:12:13.532Z,98838.05
2018-06-19T22:14:43.356Z,98836.98
2018-06-19T22:17:15.659Z,98843.66
2018-06-19T22:19:45.424Z,98837.66
2018-06-19T22:22:15.502Z,98840.08
2018-06-19T22:24:45.288Z,98842.62
2018-06-19T22:27:19.111Z,98841.55
2018-06-19T22:29:49.444Z,98842.64
2018-06-19T22:32:19.245Z,98845.80
2018-06-19T22:34:49.217Z,98844.84
2018-06-19T22:37:20.262Z,98843.88
2018-06-19T22:39:50.782Z,98839.42
2018-06-19T22:42:20.638Z,98841.80
2018-06-19T22:44:50.913Z,98842.44
2018-06-19T22:47:24.690Z,98843.64
2018-06-19T22:49:54.458Z,98834.88
2018-06-19T22:52:24.509Z,98841.77
2018-06-19T22:54:54.658Z,98842.25
2018-06-19T22:57:24.822Z,98836.36
2018-06-19T22:59:54.701Z,98841.53
2018-06-19T23:02:26.300Z,98837.81
2018-06-19T23:04:56.165Z,98834.59
2018-06-19T23:07:26.712Z,98840.70
2018-06-19T23:09:56.981Z,98837.34
2018-06-19T23:12:27.215Z,98844.21
2018-06-19T23:14:57.270Z,98839.27
2018-06-19T23:17:27.535Z,98838.56
2018-06-19T23:19:57.418Z,98845.55
2018-06-19T23:22:27.980Z,98845.06
2018-06-19T23:24:57.851Z,98844.09
2018-06-19T23:27:38.173Z,98845.89
2018-06-19T23:30:09.101Z,98842.56
2018-06-19T23:32:39.037Z,98836.05
2018-06-19T23:35:08.928Z,98837.14
2018-06-19T23:37:39.103Z,98842.81
2018-06-19T23:40:09.040Z,98840.74
2018-06-19T23:42:38.803Z,98842.44
2018-06-19T23:45:10.019Z,98841.22
2018-06-19T23:47:39.858Z,98838.84
2018-06-19T23:50:48.487Z,98846.52
2018-06-19T23:53:18.627Z,98843.05
2018-06-19T23:55:49.053Z,98837.63
2018-06-19T23:58:19.484Z,98836.20
